Time;durP1;ratioP1;P1;durP2;ratioP2;P2;SDS_P1;SDS_P2;PMS_P1;PMS_P2;Temp;Humidity;BMP_temperature;BMP_pressure;BME280_temperature;BME280_humidity;BME280_pressure;Samples;Min_cycle;Max_cycle;Signal;HPM_P1;HPM_P2
2023/08/27 00:00:12;;;;;;;11.23;9.50;;;14.30;99.90;;;;;;5052429;28;20118;-73
2023/08/27 00:02:37;;;;;;;15.10;11.55;;;14.40;99.90;;;;;;5068846;28;20037;-73
2023/08/27 00:05:04;;;;;;;14.15;11.20;;;14.30;99.90;;;;;;5052528;28;20076;-73
2023/08/27 00:07:30;;;;;;;13.70;11.52;;;14.30;99.90;;;;;;5052774;28;20048;-73
2023/08/27 00:09:55;;;;;;;15.10;10.80;;;14.30;99.90;;;;;;5052605;28;20071;-73
2023/08/27 00:12:21;;;;;;;14.18;11.38;;;14.30;99.90;;;;;;5052757;28;20044;-73
2023/08/27 00:14:46;;;;;;;15.60;11.18;;;14.30;99.90;;;;;;5052845;28;20048;-73
2023/08/27 00:17:19;;;;;;;15.88;12.32;;;14.30;99.90;;;;;;5053736;28;20167;-73
2023/08/27 00:19:45;;;;;;;12.95;11.15;;;14.30;99.90;;;;;;5052297;28;20087;-73
2023/08/27 00:22:10;;;;;;;14.55;11.88;;;14.30;99.90;;;;;;5052307;28;20041;-73
2023/08/27 00:24:36;;;;;;;15.07;11.60;;;14.30;99.90;;;;;;5052402;28;20095;-73
2023/08/27 00:27:03;;;;;;;15.30;13.00;;;14.20;99.90;;;;;;5052611;28;20037;-73
2023/08/27 00:29:29;;;;;;;15.63;12.38;;;14.20;99.90;;;;;;5053577;28;20045;-73
2023/08/27 00:31:54;;;;;;;13.27;10.88;;;14.20;99.90;;;;;;5052369;28;20052;-73
2023/08/27 00:34:21;;;;;;;17.20;12.82;;;14.10;99.90;;;;;;5052657;28;20045;-73
2023/08/27 00:36:46;;;;;;;15.45;13.07;;;14.10;99.90;;;;;;5053565;28;20041;-73
2023/08/27 00:39:12;;;;;;;16.42;13.02;;;14.20;99.90;;;;;;5053360;28;20365;-73
2023/08/27 00:41:37;;;;;;;14.60;12.25;;;14.10;99.90;;;;;;5053687;28;20503;-73
2023/08/27 00:44:03;;;;;;;18.00;12.48;;;14.10;99.90;;;;;;5052501;28;20045;-73
2023/08/27 00:46:29;;;;;;;17.50;12.35;;;14.10;99.90;;;;;;5052077;28;20049;-73
2023/08/27 00:48:55;;;;;;;16.30;13.38;;;14.00;99.90;;;;;;5052387;28;20095;-73
2023/08/27 00:51:21;;;;;;;16.25;13.02;;;14.00;99.90;;;;;;5052041;28;20397;-73
2023/08/27 00:53:47;;;;;;;16.30;12.93;;;14.00;99.90;;;;;;5052141;28;20041;-73
2023/08/27 00:56:13;;;;;;;16.52;12.55;;;14.00;99.90;;;;;;5053346;28;20053;-73
2023/08/27 00:58:39;;;;;;;14.88;12.65;;;13.90;99.90;;;;;;5053227;28;20044;-73
2023/08/27 01:01:05;;;;;;;16.45;13.23;;;13.90;99.90;;;;;;5052173;28;20049;-73
2023/08/27 01:03:33;;;;;;;14.23;12.00;;;13.90;99.90;;;;;;5051868;28;20045;-73
2023/08/27 01:05:59;;;;;;;15.40;13.25;;;13.90;99.90;;;;;;5051913;28;20075;-73
2023/08/27 01:09:05;;;;;;;15.48;13.55;;;13.90;99.90;;;;;;5052208;28;20090;-73
2023/08/27 01:11:50;;;;;;;15.60;13.80;;;13.90;99.90;;;;;;5053269;28;20041;-73
2023/08/27 01:14:18;;;;;;;17.27;13.93;;;13.90;99.90;;;;;;5053716;28;20049;-73
2023/08/27 01:16:46;;;;;;;18.80;14.18;;;13.90;99.90;;;;;;5055667;28;20037;-73
2023/08/27 01:19:14;;;;;;;17.65;13.75;;;13.90;99.90;;;;;;5055636;28;20052;-73
2023/08/27 01:21:43;;;;;;;16.27;12.68;;;13.90;99.90;;;;;;5055985;28;20072;-73
2023/08/27 01:24:10;;;;;;;15.90;13.23;;;13.90;99.90;;;;;;5055756;28;20044;-73
2023/08/27 01:26:44;;;;;;;16.02;12.90;;;13.90;99.90;;;;;;5055481;28;20040;-73
2023/08/27 01:29:39;;;;;;;17.15;13.23;;;13.90;99.90;;;;;;5055803;28;20477;-73
2023/08/27 01:32:05;;;;;;;17.48;13.23;;;14.00;99.90;;;;;;5055518;28;20090;-73
2023/08/27 01:34:32;;;;;;;14.93;13.13;;;13.90;99.90;;;;;;5055269;28;20131;-73
2023/08/27 01:36:58;;;;;;;16.52;12.65;;;13.90;99.90;;;;;;5055233;28;20430;-73
2023/08/27 01:39:24;;;;;;;16.02;13.63;;;13.90;99.90;;;;;;5055328;28;20507;-73
2023/08/27 01:41:51;;;;;;;16.45;13.60;;;13.90;99.90;;;;;;5055300;28;20081;-73
2023/08/27 01:44:18;;;;;;;16.95;13.90;;;13.90;99.90;;;;;;5056558;28;20037;-73
2023/08/27 01:46:43;;;;;;;15.57;13.40;;;13.90;99.90;;;;;;5055049;28;20064;-73
2023/08/27 01:49:09;;;;;;;15.27;12.65;;;13.90;99.90;;;;;;5055046;28;20052;-73
2023/08/27 01:51:35;;;;;;;14.65;12.98;;;13.90;99.90;;;;;;5056447;28;20041;-73
2023/08/27 01:54:00;;;;;;;15.55;13.07;;;13.90;99.90;;;;;;5055016;28;20060;-73
2023/08/27 01:56:26;;;;;;;14.30;12.73;;;13.90;99.90;;;;;;5055333;28;20049;-73
2023/08/27 01:58:52;;;;;;;14.80;12.13;;;13.90;99.90;;;;;;5054934;28;20124;-73
2023/08/27 02:01:17;;;;;;;14.57;11.90;;;13.90;99.90;;;;;;5055168;28;20049;-73
2023/08/27 02:03:43;;;;;;;16.15;12.15;;;13.90;99.90;;;;;;5054969;28;20384;-73
2023/08/27 02:06:09;;;;;;;14.30;12.45;;;14.00;99.90;;;;;;5054788;28;20049;-73
2023/08/27 02:08:37;;;;;;;17.27;12.45;;;14.00;99.90;;;;;;5055003;28;20476;-73
2023/08/27 02:11:03;;;;;;;14.57;11.95;;;14.00;99.90;;;;;;5054753;28;20480;-73
2023/08/27 02:13:28;;;;;;;14.95;13.02;;;14.00;99.90;;;;;;5055057;28;20051;-73
2023/08/27 02:15:54;;;;;;;16.00;12.48;;;14.00;99.90;;;;;;5054457;28;20049;-73
2023/08/27 02:18:20;;;;;;;14.13;12.02;;;14.00;99.90;;;;;;5054512;28;20045;-73
2023/08/27 02:20:45;;;;;;;14.07;11.68;;;14.00;99.90;;;;;;5054356;28;20041;-73
2023/08/27 02:23:11;;;;;;;14.57;12.32;;;14.00;99.90;;;;;;5054610;28;20084;-73
2023/08/27 02:25:36;;;;;;;14.38;12.27;;;14.00;99.90;;;;;;5054068;28;20084;-73
2023/08/27 02:28:02;;;;;;;13.68;11.68;;;14.00;99.90;;;;;;5054479;28;20115;-73
2023/08/27 02:30:28;;;;;;;16.63;12.27;;;13.90;99.90;;;;;;5045678;28;20041;-73
2023/08/27 02:32:53;;;;;;;17.02;11.77;;;13.90;99.90;;;;;;5035709;28;20038;-73
2023/08/27 02:35:19;;;;;;;13.60;11.75;;;13.90;99.90;;;;;;5034617;28;20085;-73
2023/08/27 02:37:45;;;;;;;16.05;12.55;;;13.80;99.90;;;;;;5034354;28;20053;-73
2023/08/27 02:40:13;;;;;;;13.98;11.63;;;13.80;99.90;;;;;;5034202;28;20045;-73
2023/08/27 02:42:38;;;;;;;12.82;11.43;;;13.70;99.90;;;;;;5034366;28;20049;-73
2023/08/27 02:45:05;;;;;;;14.25;12.05;;;13.70;99.90;;;;;;5034199;28;20183;-73
2023/08/27 02:47:30;;;;;;;14.35;11.93;;;13.60;99.90;;;;;;5034001;28;20052;-73
2023/08/27 02:49:56;;;;;;;16.48;11.48;;;13.60;99.90;;;;;;5034237;28;20457;-73
2023/08/27 02:52:22;;;;;;;14.40;11.77;;;13.60;99.90;;;;;;5034246;28;20075;-73
2023/08/27 02:54:47;;;;;;;13.38;11.27;;;13.50;99.90;;;;;;5034009;28;20049;-73
2023/08/27 02:57:13;;;;;;;15.02;11.20;;;13.60;99.90;;;;;;5034203;28;20041;-73
2023/08/27 02:59:38;;;;;;;12.75;10.93;;;13.50;99.90;;;;;;5033967;28;20508;-73
2023/08/27 03:02:04;;;;;;;14.30;11.70;;;13.50;99.90;;;;;;5033892;28;20485;-73
2023/08/27 03:04:30;;;;;;;13.05;11.15;;;13.50;99.90;;;;;;5033713;28;20046;-73
2023/08/27 03:06:55;;;;;;;13.73;11.63;;;13.40;99.90;;;;;;5033981;28;20041;-73
2023/08/27 03:09:21;;;;;;;13.52;12.07;;;13.40;99.90;;;;;;5033925;28;20053;-73
2023/08/27 03:11:47;;;;;;;13.80;11.40;;;13.50;99.90;;;;;;5033999;28;20088;-73
2023/08/27 03:14:12;;;;;;;13.65;11.50;;;13.50;99.90;;;;;;5033872;28;20115;-73
2023/08/27 03:16:38;;;;;;;13.18;10.20;;;13.40;99.90;;;;;;5034639;28;20046;-73
2023/08/27 03:19:04;;;;;;;12.52;11.23;;;13.40;99.90;;;;;;5034867;28;20047;-73
2023/08/27 03:21:30;;;;;;;12.65;11.23;;;13.40;99.90;;;;;;5033429;28;20042;-73
2023/08/27 03:23:55;;;;;;;12.55;11.20;;;13.40;99.90;;;;;;5034867;28;20092;-73
2023/08/27 03:26:21;;;;;;;14.25;11.43;;;13.40;99.90;;;;;;5033459;28;20045;-73
2023/08/27 03:28:47;;;;;;;16.75;11.05;;;13.40;99.90;;;;;;5033328;28;20087;-73
2023/08/27 03:31:12;;;;;;;13.55;11.00;;;13.40;99.90;;;;;;5033168;28;20045;-73
2023/08/27 03:33:38;;;;;;;14.20;11.15;;;13.40;99.90;;;;;;5033424;28;20034;-73
2023/08/27 03:36:04;;;;;;;14.18;11.48;;;13.40;99.90;;;;;;5032723;28;20081;-73
2023/08/27 03:38:30;;;;;;;16.27;11.38;;;13.40;99.90;;;;;;5033067;28;20041;-73
2023/08/27 03:40:55;;;;;;;15.40;12.52;;;13.40;99.90;;;;;;5033146;28;20057;-73
2023/08/27 03:43:21;;;;;;;14.43;12.38;;;13.40;99.90;;;;;;5033630;28;20495;-72
2023/08/27 03:45:49;;;;;;;13.30;11.55;;;13.30;99.90;;;;;;5052806;28;20047;-73
2023/08/27 03:48:15;;;;;;;14.25;11.27;;;13.30;99.90;;;;;;5052589;28;20103;-73
2023/08/27 03:50:41;;;;;;;14.40;12.45;;;13.30;99.90;;;;;;5054198;28;20052;-73
2023/08/27 03:53:07;;;;;;;15.13;11.60;;;13.30;99.90;;;;;;5053062;28;20060;-73
2023/08/27 03:55:42;;;;;;;14.45;12.18;;;13.30;99.90;;;;;;5054077;28;20124;-73
2023/08/27 03:58:08;;;;;;;15.50;13.02;;;13.30;99.90;;;;;;5052862;28;20048;-72
2023/08/27 04:00:35;;;;;;;17.55;11.93;;;13.30;99.90;;;;;;5052535;28;20053;-73
2023/08/27 04:03:01;;;;;;;16.80;12.13;;;13.30;99.90;;;;;;5052656;28;20037;-73
2023/08/27 04:05:27;;;;;;;14.88;12.23;;;13.30;99.90;;;;;;5052853;28;20037;-73
2023/08/27 04:07:52;;;;;;;18.08;12.95;;;13.30;99.90;;;;;;5052902;28;20431;-73
2023/08/27 04:10:18;;;;;;;14.32;11.90;;;13.40;99.90;;;;;;5052560;28;20542;-73
2023/08/27 04:12:54;;;;;;;13.85;11.27;;;13.40;99.90;;;;;;5052381;28;20049;-73
2023/08/27 04:15:20;;;;;;;13.75;11.23;;;13.40;99.90;;;;;;5052699;28;20052;-73
2023/08/27 04:17:45;;;;;;;19.08;12.25;;;13.40;99.90;;;;;;5052419;28;20045;-73
2023/08/27 04:20:11;;;;;;;16.75;12.73;;;13.50;99.90;;;;;;5052313;28;20048;-73
2023/08/27 04:22:37;;;;;;;14.98;12.50;;;13.50;99.90;;;;;;5053831;28;20045;-73
2023/08/27 04:25:02;;;;;;;15.00;11.95;;;13.50;99.90;;;;;;5053685;28;20041;-73
2023/08/27 04:27:34;;;;;;;14.55;12.70;;;13.50;99.90;;;;;;5052442;28;20472;-73
2023/08/27 04:30:00;;;;;;;17.85;12.82;;;13.60;99.90;;;;;;5052512;28;20057;-73
2023/08/27 04:32:25;;;;;;;19.63;12.27;;;13.60;99.90;;;;;;5052152;28;20040;-73
2023/08/27 04:34:51;;;;;;;14.60;12.60;;;13.60;99.90;;;;;;5052073;28;20139;-73
2023/08/27 04:37:17;;;;;;;16.33;12.85;;;13.60;99.90;;;;;;5052574;28;20044;-73
2023/08/27 04:39:42;;;;;;;15.95;12.82;;;13.60;99.90;;;;;;5052491;28;20041;-72
2023/08/27 04:42:08;;;;;;;17.90;12.35;;;13.60;99.90;;;;;;5035649;28;20194;-73
2023/08/27 04:44:34;;;;;;;16.65;12.25;;;13.70;99.90;;;;;;5052228;28;20533;-73
2023/08/27 04:47:00;;;;;;;16.08;11.65;;;13.60;99.90;;;;;;5053184;28;20522;-73
2023/08/27 04:49:29;;;;;;;14.90;11.68;;;13.60;99.90;;;;;;5072711;28;20057;-73
2023/08/27 04:51:54;;;;;;;15.75;12.45;;;13.70;99.90;;;;;;5056414;28;20045;-73
2023/08/27 04:54:20;;;;;;;16.70;12.77;;;13.60;99.90;;;;;;5057105;28;20040;-72
2023/08/27 04:56:46;;;;;;;15.75;12.52;;;13.70;99.90;;;;;;5057491;28;20111;-73
2023/08/27 04:59:14;;;;;;;17.55;13.52;;;13.70;99.90;;;;;;5055802;28;20049;-73
2023/08/27 05:01:40;;;;;;;17.13;12.65;;;13.60;99.90;;;;;;5056090;28;20472;-73
2023/08/27 05:04:05;;;;;;;16.58;12.60;;;13.60;99.90;;;;;;5057170;28;20240;-73
2023/08/27 05:06:31;;;;;;;16.80;13.55;;;13.60;99.90;;;;;;5055974;28;20057;-73
2023/08/27 05:08:59;;;;;;;15.95;12.65;;;13.60;99.90;;;;;;5055863;28;20393;-73
2023/08/27 05:11:25;;;;;;;18.83;13.05;;;13.60;99.90;;;;;;5055861;28;20037;-73
2023/08/27 05:13:51;;;;;;;16.98;12.35;;;13.60;99.90;;;;;;5055576;28;20118;-73
2023/08/27 05:16:16;;;;;;;16.75;12.35;;;13.60;99.90;;;;;;5057199;28;20037;-73
2023/08/27 05:18:45;;;;;;;17.38;12.80;;;13.60;99.90;;;;;;5055396;28;20456;-73
2023/08/27 05:21:10;;;;;;;16.50;12.82;;;13.70;99.90;;;;;;5056766;28;20124;-73
2023/08/27 05:23:36;;;;;;;18.40;13.05;;;13.60;99.90;;;;;;5055648;28;20057;-73
2023/08/27 05:26:01;;;;;;;16.17;12.73;;;13.70;99.90;;;;;;5055393;28;20412;-73
2023/08/27 05:28:27;;;;;;;14.45;12.00;;;13.70;99.90;;;;;;5055654;28;20080;-74
2023/08/27 05:30:53;;;;;;;15.77;12.68;;;13.70;99.90;;;;;;5055568;28;20051;-73
2023/08/27 05:33:18;;;;;;;15.95;12.43;;;13.80;99.90;;;;;;5055512;28;20049;-73
2023/08/27 05:35:47;;;;;;;14.50;12.15;;;13.90;99.90;;;;;;5055474;28;20045;-73
2023/08/27 05:38:22;;;;;;;16.63;12.88;;;14.00;99.90;;;;;;5055884;28;20045;-73
2023/08/27 05:40:50;;;;;;;15.52;11.88;;;14.00;99.90;;;;;;5055146;28;20124;-73
2023/08/27 05:43:16;;;;;;;16.67;13.00;;;14.00;99.90;;;;;;5055443;28;20053;-73
2023/08/27 05:45:42;;;;;;;15.20;12.18;;;14.10;99.90;;;;;;5055314;28;20435;-73
2023/08/27 05:48:07;;;;;;;13.90;12.13;;;14.10;99.90;;;;;;5055027;28;20558;-73
2023/08/27 05:50:34;;;;;;;14.07;11.60;;;14.20;99.90;;;;;;5054880;28;20053;-73
2023/08/27 05:53:02;;;;;;;15.95;11.95;;;14.20;99.90;;;;;;5055319;28;20472;-73
2023/08/27 05:55:27;;;;;;;13.52;11.50;;;14.20;99.90;;;;;;5054827;28;20052;-73
2023/08/27 05:57:53;;;;;;;14.20;11.68;;;14.20;99.90;;;;;;5055212;28;20123;-73
2023/08/27 06:00:19;;;;;;;14.85;11.98;;;14.30;99.90;;;;;;5053900;28;20549;-73
2023/08/27 06:02:44;;;;;;;15.73;11.85;;;14.20;99.90;;;;;;5054710;28;20468;-73
2023/08/27 06:05:11;;;;;;;14.75;11.32;;;14.30;99.90;;;;;;5054861;28;20048;-73
2023/08/27 06:07:37;;;;;;;16.85;11.73;;;14.30;99.90;;;;;;5056148;28;20037;-73
2023/08/27 06:10:03;;;;;;;16.17;11.82;;;14.30;99.90;;;;;;5054559;28;20415;-72
2023/08/27 06:12:29;;;;;;;14.50;12.10;;;14.30;99.90;;;;;;5054784;28;20041;-73
2023/08/27 06:14:54;;;;;;;14.32;12.27;;;14.30;99.90;;;;;;5055981;28;20106;-72
2023/08/27 06:17:20;;;;;;;16.75;11.85;;;14.30;99.90;;;;;;5054520;28;20118;-73
2023/08/27 06:19:45;;;;;;;14.73;11.38;;;14.30;99.90;;;;;;5055490;28;20053;-73
2023/08/27 06:22:11;;;;;;;14.55;11.60;;;14.40;99.90;;;;;;5055810;28;20491;-73
2023/08/27 06:24:37;;;;;;;16.42;12.20;;;14.30;99.90;;;;;;5054366;28;20052;-73
2023/08/27 06:27:02;;;;;;;14.73;11.48;;;14.40;99.90;;;;;;5055597;28;20116;-73
2023/08/27 06:29:31;;;;;;;13.15;11.07;;;14.40;99.90;;;;;;5054207;28;20369;-73
2023/08/27 06:31:56;;;;;;;12.73;10.95;;;14.50;99.90;;;;;;5054176;28;20049;-73
2023/08/27 06:34:22;;;;;;;16.05;11.75;;;14.50;99.90;;;;;;5054074;28;20546;-72
2023/08/27 06:36:48;;;;;;;14.25;12.05;;;14.60;99.90;;;;;;5055571;28;20048;-73
2023/08/27 06:39:13;;;;;;;15.20;11.82;;;14.60;99.90;;;;;;5053943;28;20385;-73
2023/08/27 06:41:39;;;;;;;17.15;11.90;;;14.60;99.90;;;;;;5054090;28;20049;-73
2023/08/27 06:44:05;;;;;;;13.18;10.35;;;14.70;99.90;;;;;;5054375;28;20060;-73
2023/08/27 06:46:31;;;;;;;17.02;11.55;;;14.70;99.90;;;;;;5053883;28;20425;-72
2023/08/27 06:49:00;;;;;;;15.55;12.48;;;14.80;99.90;;;;;;5055193;28;20068;-72
2023/08/27 06:51:27;;;;;;;14.30;10.95;;;14.70;99.90;;;;;;5053816;28;20048;-72
2023/08/27 06:53:53;;;;;;;14.65;11.93;;;14.80;99.90;;;;;;5053996;28;20377;-72
2023/08/27 06:56:19;;;;;;;17.83;11.15;;;14.70;99.90;;;;;;5053947;28;20086;-72
2023/08/27 06:58:45;;;;;;;13.55;11.00;;;14.80;99.90;;;;;;5053584;28;20044;-72
2023/08/27 07:01:10;;;;;;;14.27;10.27;;;14.70;99.90;;;;;;5053695;28;20049;-72
2023/08/27 07:03:37;;;;;;;14.25;10.73;;;14.80;99.90;;;;;;5053588;28;20084;-72
2023/08/27 07:06:05;;;;;;;14.07;10.02;;;14.80;99.90;;;;;;5053555;28;20056;-72
2023/08/27 07:08:31;;;;;;;17.80;10.40;;;14.90;99.90;;;;;;5053370;28;20041;-72
2023/08/27 07:10:57;;;;;;;14.38;10.50;;;14.90;99.90;;;;;;5052525;28;20053;-72
2023/08/27 07:13:25;;;;;;;14.90;9.65;;;14.90;99.90;;;;;;5053516;28;20049;-72
2023/08/27 07:15:51;;;;;;;13.38;10.27;;;15.00;99.90;;;;;;5053522;28;20155;-72
2023/08/27 07:18:16;;;;;;;16.20;10.20;;;15.10;99.90;;;;;;5054527;28;20037;-72
2023/08/27 07:20:42;;;;;;;13.90;10.23;;;15.10;99.90;;;;;;5054233;28;20056;-73
2023/08/27 07:23:08;;;;;;;15.43;10.90;;;15.10;99.90;;;;;;5054506;28;20052;-72
2023/08/27 07:25:34;;;;;;;12.93;10.63;;;15.10;99.90;;;;;;5053533;28;20489;-72
2023/08/27 07:27:59;;;;;;;15.52;10.38;;;15.20;99.90;;;;;;5053047;28;20091;-72
2023/08/27 07:30:28;;;;;;;15.60;10.23;;;15.20;99.90;;;;;;5053815;28;20061;-72
2023/08/27 07:32:53;;;;;;;13.43;10.32;;;15.30;99.90;;;;;;5052978;28;20383;-72
2023/08/27 07:35:19;;;;;;;14.82;11.25;;;15.30;99.90;;;;;;5053007;28;20136;-72
2023/08/27 07:37:45;;;;;;;16.02;10.75;;;15.30;99.90;;;;;;5054330;28;20033;-73
2023/08/27 07:40:10;;;;;;;12.65;10.50;;;15.40;99.90;;;;;;5052829;28;20040;-73
2023/08/27 07:42:39;;;;;;;12.90;10.20;;;15.40;99.90;;;;;;5051167;28;20094;-73
2023/08/27 07:45:08;;;;;;;14.88;10.90;;;15.40;99.90;;;;;;5050524;28;20488;-73
2023/08/27 07:47:36;;;;;;;15.50;10.95;;;15.50;99.90;;;;;;5052636;28;20107;-73
2023/08/27 07:50:01;;;;;;;15.93;11.27;;;15.60;99.90;;;;;;5053108;28;20048;-73
2023/08/27 07:52:30;;;;;;;14.43;10.95;;;15.60;99.90;;;;;;5052437;28;20548;-73
2023/08/27 07:54:55;;;;;;;15.32;11.10;;;15.60;99.90;;;;;;5052360;28;20484;-73
2023/08/27 07:57:21;;;;;;;16.27;11.20;;;15.70;99.90;;;;;;5052080;28;20051;-73
2023/08/27 07:59:51;;;;;;;15.60;12.32;;;15.80;99.90;;;;;;5053966;28;20041;-73
2023/08/27 08:02:17;;;;;;;13.38;11.40;;;15.90;99.90;;;;;;5052305;28;20483;-73
2023/08/27 08:04:43;;;;;;;14.68;11.25;;;16.00;99.90;;;;;;5052705;28;20048;-73
2023/08/27 08:07:09;;;;;;;16.70;11.75;;;16.20;99.90;;;;;;5052677;28;20392;-73
2023/08/27 08:09:35;;;;;;;16.23;11.18;;;16.50;99.90;;;;;;5052733;28;20040;-73
2023/08/27 08:12:01;;;;;;;14.18;9.02;;;16.60;99.90;;;;;;5051154;28;20051;-72
2023/08/27 08:14:27;;;;;;;11.52;8.40;;;16.70;99.90;;;;;;5053720;28;20123;-73
2023/08/27 08:16:53;;;;;;;10.70;8.40;;;16.80;99.90;;;;;;5052271;28;20052;-73
2023/08/27 08:19:19;;;;;;;12.32;9.73;;;16.80;99.90;;;;;;5052370;28;20059;-73
2023/08/27 08:21:46;;;;;;;12.18;9.43;;;16.80;99.90;;;;;;5052448;28;20051;-74
2023/08/27 08:24:13;;;;;;;15.07;9.25;;;16.90;99.90;;;;;;5052093;28;20064;-73
2023/08/27 08:26:38;;;;;;;12.63;8.95;;;16.80;99.90;;;;;;5053241;28;20507;-73
2023/08/27 08:29:04;;;;;;;13.25;8.82;;;16.80;99.90;;;;;;5052417;28;20053;-73
2023/08/27 08:31:30;;;;;;;12.32;9.60;;;16.80;99.90;;;;;;5052121;28;20088;-74
2023/08/27 08:33:56;;;;;;;9.27;6.97;;;16.70;99.90;;;;;;5051564;28;20124;-74
2023/08/27 08:36:21;;;;;;;9.45;6.60;;;16.70;99.90;;;;;;5051095;28;20056;-74
2023/08/27 08:38:47;;;;;;;10.25;5.88;;;17.00;99.90;;;;;;5051618;28;20072;-73
2023/08/27 08:41:19;;;;;;;7.45;4.90;;;17.10;99.90;;;;;;5052325;28;20135;-73
2023/08/27 08:43:51;;;;;;;8.13;3.80;;;17.20;99.90;;;;;;5053017;28;20044;-73
2023/08/27 08:46:21;;;;;;;7.30;3.97;;;17.30;99.90;;;;;;5051224;28;20053;-73
2023/08/27 08:48:54;;;;;;;4.18;2.17;;;17.50;99.90;;;;;;5051686;28;20049;-73
2023/08/27 08:51:24;;;;;;;5.45;1.95;;;17.50;99.90;;;;;;5051664;28;20124;-73
2023/08/27 08:53:58;;;;;;;4.75;2.20;;;17.70;99.90;;;;;;5052308;28;20171;-73
2023/08/27 08:56:39;;;;;;;3.63;1.95;;;17.70;99.90;;;;;;5051766;28;20053;-74
2023/08/27 08:59:12;;;;;;;4.03;1.30;;;17.80;99.90;;;;;;5051991;28;20480;-74
2023/08/27 09:01:38;;;;;;;3.20;1.08;;;17.90;99.90;;;;;;5051310;28;20087;-73
2023/08/27 09:04:07;;;;;;;1.83;0.82;;;18.00;99.90;;;;;;5053227;28;20071;-74
2023/08/27 09:06:34;;;;;;;8.93;1.13;;;18.20;99.90;;;;;;5051359;28;20389;-73
2023/08/27 09:09:01;;;;;;;2.72;1.10;;;18.20;99.90;;;;;;5050954;28;20045;-74
2023/08/27 09:11:32;;;;;;;2.85;1.17;;;18.20;99.90;;;;;;5051340;28;20045;-73
2023/08/27 09:13:59;;;;;;;2.30;1.40;;;18.30;99.90;;;;;;5051283;28;20134;-72
2023/08/27 09:16:27;;;;;;;4.18;2.17;;;18.40;99.90;;;;;;5049890;28;20476;-74
2023/08/27 09:18:52;;;;;;;3.42;2.03;;;18.40;99.90;;;;;;5051477;28;20492;-73
2023/08/27 09:21:18;;;;;;;3.20;1.80;;;18.30;99.90;;;;;;5051872;28;20053;-74
2023/08/27 09:23:44;;;;;;;3.70;1.88;;;18.10;99.90;;;;;;5051625;28;20124;-73
2023/08/27 09:26:12;;;;;;;3.55;1.83;;;18.00;99.90;;;;;;5051780;28;20045;-73
2023/08/27 09:28:38;;;;;;;2.33;1.10;;;18.00;99.90;;;;;;5052010;28;20428;-73
2023/08/27 09:31:04;;;;;;;2.75;0.93;;;18.10;99.90;;;;;;5051778;28;20080;-73
2023/08/27 09:33:37;;;;;;;4.15;0.95;;;18.20;99.90;;;;;;5051770;28;20077;-74
2023/08/27 09:36:02;;;;;;;;;;;18.20;99.90;;;;;;5054931;28;20055;-74
2023/08/27 09:38:28;;;;;;;1.77;0.65;;;18.10;99.90;;;;;;5055462;28;19921;-73
2023/08/27 09:40:54;;;;;;;0.80;0.40;;;18.00;99.90;;;;;;5055063;28;20392;-74
2023/08/27 09:43:26;;;;;;;2.63;0.40;;;17.80;99.90;;;;;;5054833;28;20041;-73
2023/08/27 09:45:52;;;;;;;7.43;0.60;;;17.70;99.90;;;;;;5055316;28;20098;-73
2023/08/27 09:48:25;;;;;;;2.28;0.40;;;17.60;99.90;;;;;;5056067;28;20053;-73
2023/08/27 09:51:01;;;;;;;1.50;0.43;;;17.60;99.90;;;;;;5055044;28;20103;-72
2023/08/27 09:53:28;;;;;;;1.25;0.40;;;17.70;99.90;;;;;;5056250;28;20123;-72
2023/08/27 09:55:53;;;;;;;1.17;0.45;;;18.00;99.90;;;;;;5056074;28;20049;-72
2023/08/27 09:58:25;;;;;;;1.20;0.40;;;18.10;99.90;;;;;;5056114;28;20052;-74
2023/08/27 10:01:00;;;;;;;1.25;0.40;;;18.20;99.90;;;;;;5056103;28;20057;-74
2023/08/27 10:03:29;;;;;;;2.00;0.60;;;18.20;99.90;;;;;;5054769;28;20535;-74
2023/08/27 10:05:55;;;;;;;3.20;0.40;;;18.10;99.90;;;;;;5054752;28;20064;-73
2023/08/27 10:08:21;;;;;;;1.40;0.40;;;17.90;99.90;;;;;;5054681;28;20049;-73
2023/08/27 10:10:47;;;;;;;0.98;0.35;;;17.90;99.90;;;;;;5055857;28;20029;-74
2023/08/27 10:13:15;;;;;;;1.05;0.32;;;17.60;99.90;;;;;;5054536;28;20500;-72
2023/08/27 10:15:41;;;;;;;1.35;0.40;;;17.50;99.90;;;;;;5054717;28;20120;-73
2023/08/27 10:18:15;;;;;;;1.25;0.40;;;17.50;99.90;;;;;;5055715;28;20551;-72
2023/08/27 10:20:41;;;;;;;0.80;0.28;;;17.50;99.90;;;;;;5054496;28;20496;-72
2023/08/27 10:23:10;;;;;;;2.03;0.73;;;17.60;99.90;;;;;;5054379;28;20081;-72
2023/08/27 10:25:37;;;;;;;1.63;0.40;;;17.50;99.90;;;;;;5055818;28;20052;-73
2023/08/27 10:28:04;;;;;;;1.52;0.60;;;17.60;99.90;;;;;;5054334;28;20496;-72
2023/08/27 10:30:31;;;;;;;1.63;0.50;;;17.70;99.90;;;;;;5053861;28;20060;-72
2023/08/27 10:32:57;;;;;;;1.73;0.60;;;17.70;99.90;;;;;;5054244;28;20116;-73
2023/08/27 10:35:26;;;;;;;1.45;0.57;;;17.70;99.90;;;;;;5053922;28;20136;-73
2023/08/27 10:37:55;;;;;;;1.30;0.50;;;17.70;99.90;;;;;;5055180;28;20067;-73
2023/08/27 10:40:25;;;;;;;2.20;0.70;;;17.80;99.90;;;;;;5054150;28;20400;-73
2023/08/27 10:42:51;;;;;;;1.88;0.80;;;17.80;99.90;;;;;;5034178;28;20127;-73
2023/08/27 10:45:25;;;;;;;4.40;0.90;;;17.70;99.90;;;;;;5033827;28;20077;-74
2023/08/27 10:48:19;;;;;;;3.08;1.10;;;17.70;99.90;;;;;;5035283;28;20054;-74
2023/08/27 10:50:47;;;;;;;2.00;1.10;;;17.60;99.90;;;;;;5035179;28;20060;-73
2023/08/27 10:53:15;;;;;;;3.15;1.15;;;17.40;99.90;;;;;;5034018;28;20049;-73
2023/08/27 10:55:48;;;;;;;2.90;1.20;;;17.40;99.90;;;;;;5033828;28;20048;-73
2023/08/27 10:58:21;;;;;;;4.88;1.48;;;17.20;99.90;;;;;;5033796;28;20060;-72
2023/08/27 11:01:07;;;;;;;2.75;1.50;;;17.10;99.90;;;;;;5033713;28;20049;-73
2023/08/27 11:04:01;;;;;;;4.97;1.60;;;16.80;99.90;;;;;;5049700;28;20052;-74
2023/08/27 11:06:36;;;;;;;2.85;1.50;;;16.60;99.90;;;;;;5055090;28;20064;-74
2023/08/27 11:09:10;;;;;;;3.97;1.58;;;16.50;99.90;;;;;;5053949;28;20057;-73
2023/08/27 11:11:40;;;;;;;3.78;1.70;;;16.40;99.90;;;;;;5054730;28;20056;-73
2023/08/27 11:14:08;;;;;;;3.10;1.42;;;16.30;99.90;;;;;;5053678;28;20079;-73
2023/08/27 11:16:43;;;;;;;3.58;1.27;;;16.10;99.90;;;;;;5069912;28;20052;-73
2023/08/27 11:19:11;;;;;;;4.40;1.20;;;16.00;99.90;;;;;;5053430;28;20075;-73
2023/08/27 11:21:40;;;;;;;2.08;1.10;;;16.00;99.90;;;;;;5054371;28;20511;-73
2023/08/27 11:24:24;;;;;;;2.25;1.10;;;15.90;99.90;;;;;;5053250;28;20400;-73
2023/08/27 11:26:52;;;;;;;4.30;1.20;;;15.90;99.90;;;;;;5053186;28;20056;-73
2023/08/27 11:29:20;;;;;;;4.35;1.25;;;16.00;99.90;;;;;;5052982;28;20476;-73
2023/08/27 11:31:46;;;;;;;2.03;1.30;;;16.00;99.90;;;;;;5053500;28;20077;-73
2023/08/27 11:34:15;;;;;;;2.75;1.50;;;16.10;99.90;;;;;;5053034;28;20107;-73
2023/08/27 11:36:47;;;;;;;3.17;1.20;;;16.10;99.90;;;;;;5054253;28;20040;-73
2023/08/27 11:39:14;;;;;;;1.58;0.90;;;16.10;99.90;;;;;;5052935;28;20052;-73
2023/08/27 11:41:43;;;;;;;2.03;0.85;;;16.00;99.90;;;;;;5053220;28;20040;-73
2023/08/27 11:44:10;;;;;;;1.70;0.80;;;16.00;99.90;;;;;;5053163;28;20052;-73
2023/08/27 11:46:42;;;;;;;2.47;1.00;;;16.00;99.90;;;;;;5052731;28;20045;-73
2023/08/27 11:49:08;;;;;;;2.90;0.85;;;15.80;99.90;;;;;;5052898;28;20408;-73
2023/08/27 11:51:34;;;;;;;4.15;1.00;;;15.70;99.90;;;;;;5052947;28;20052;-73
2023/08/27 11:54:05;;;;;;;6.00;1.38;;;15.60;99.90;;;;;;5052866;28;20068;-73
2023/08/27 11:56:34;;;;;;;4.35;2.15;;;15.30;99.90;;;;;;5053076;28;20403;-73
2023/08/27 11:59:00;;;;;;;4.65;1.60;;;15.30;99.90;;;;;;5051666;28;20076;-73
2023/08/27 12:01:29;;;;;;;4.65;1.65;;;15.20;99.90;;;;;;5052241;28;20110;-73
2023/08/27 12:03:55;;;;;;;4.22;1.48;;;15.10;99.90;;;;;;5052767;28;20041;-73
2023/08/27 12:06:28;;;;;;;3.97;1.13;;;15.00;99.90;;;;;;5052832;28;20053;-73
2023/08/27 12:08:55;;;;;;;3.10;0.90;;;15.10;99.90;;;;;;5052462;28;20139;-73
2023/08/27 12:11:27;;;;;;;2.33;0.88;;;15.00;99.90;;;;;;5053684;28;20048;-73
2023/08/27 12:14:00;;;;;;;2.53;0.77;;;14.90;99.90;;;;;;5052636;28;20554;-72
2023/08/27 12:16:34;;;;;;;1.95;0.57;;;15.00;99.90;;;;;;5053792;28;20055;-73
2023/08/27 12:19:07;;;;;;;2.53;0.60;;;15.00;99.90;;;;;;5053792;28;20064;-73
2023/08/27 12:21:36;;;;;;;2.65;0.60;;;15.00;99.90;;;;;;5052483;28;20110;-73
2023/08/27 12:24:01;;;;;;;2.92;0.68;;;15.10;99.90;;;;;;5052535;28;20083;-73
2023/08/27 12:26:30;;;;;;;2.53;0.60;;;15.20;99.90;;;;;;5053423;28;20053;-73
2023/08/27 12:28:59;;;;;;;2.85;0.80;;;15.30;99.90;;;;;;5052077;28;20053;-72
2023/08/27 12:31:25;;;;;;;4.25;0.60;;;15.30;99.90;;;;;;5053620;28;20091;-72
2023/08/27 12:33:58;;;;;;;5.05;0.57;;;15.30;99.90;;;;;;5052065;28;20044;-72